Time;durP1;ratioP1;P1;durP2;ratioP2;P2;SDS_P1;SDS_P2;PMS_P1;PMS_P2;Temp;Humidity;BMP_temperature;BMP_pressure;BME280_temperature;BME280_humidity;BME280_pressure;Samples;Min_cycle;Max_cycle;Signal;HPM_P1;HPM_P2
2021/12/05 00:24:13;;;;;;;3.67;2.20;;;;;;;3.65;100.00;93957.53;5017053;28;20182;-62
2021/12/05 00:26:40;;;;;;;2.87;1.87;;;;;;;3.64;100.00;93977.56;5015560;28;20210;-64
2021/12/05 00:34:38;;;;;;;1.67;1.10;;;;;;;3.54;100.00;93973.00;5017051;28;20174;-62
2021/12/05 00:38:21;;;;;;;1.70;1.17;;;;;;;3.56;100.00;93975.31;5016104;28;20640;-59
2021/12/05 01:16:52;;;;;;;4.77;1.10;;;;;;;3.30;100.00;94007.03;5015915;28;20159;-65
2021/12/05 01:19:22;;;;;;;2.47;0.90;;;;;;;3.32;100.00;94014.72;5014718;28;20214;-65
2021/12/05 01:21:53;;;;;;;1.60;1.10;;;;;;;3.33;100.00;94017.03;5015244;28;20175;-65
2021/12/05 01:29:49;;;;;;;1.27;0.90;;;;;;;3.25;100.00;94020.88;5015733;28;20175;-64
2021/12/05 01:32:24;;;;;;;1.63;1.40;;;;;;;3.23;100.00;94023.22;5015024;28;20190;-61
2021/12/05 01:35:51;;;;;;;2.07;1.13;;;;;;;3.20;100.00;94021.31;5014718;28;20170;-59
2021/12/05 01:40:32;;;;;;;4.80;3.17;;;;;;;3.11;100.00;94029.03;5015299;28;20195;-59
2021/12/05 01:43:40;;;;;;;2.23;1.43;;;;;;;3.07;100.00;94020.16;5015080;28;20233;-59
2021/12/05 01:56:39;;;;;;;1.70;0.97;;;;;;;3.10;100.00;94035.56;5014529;28;20186;-59
2021/12/05 01:59:14;;;;;;;1.20;1.10;;;;;;;3.09;100.00;94039.44;5014753;28;20214;-59
2021/12/05 02:10:46;;;;;;;2.40;1.00;;;;;;;3.10;100.00;94046.34;5015031;28;20198;-61
2021/12/05 02:43:00;;;;;;;0.73;0.73;;;;;;;3.03;100.00;94051.00;5014288;28;20684;-61
2021/12/05 02:45:26;;;;;;;1.70;0.90;;;;;;;3.02;100.00;94044.84;5013223;28;20186;-62
2021/12/05 02:47:53;;;;;;;1.10;1.00;;;;;;;3.03;100.00;94049.06;5013357;28;20205;-64
2021/12/05 02:50:22;;;;;;;1.63;1.23;;;;;;;3.04;100.00;94047.16;5013030;28;20186;-64
2021/12/05 02:52:48;;;;;;;1.47;1.20;;;;;;;3.04;100.00;94047.94;5013848;28;20175;-64
2021/12/05 02:55:24;;;;;;;2.47;1.50;;;;;;;3.03;100.00;94043.69;5013263;28;20179;-64
2021/12/05 02:57:52;;;;;;;1.40;1.20;;;;;;;3.07;100.00;94047.13;5013699;28;20198;-64
2021/12/05 03:00:33;;;;;;;4.63;3.80;;;;;;;3.05;100.00;94049.47;5013386;28;20199;-63
2021/12/05 03:02:59;;;;;;;2.13;1.33;;;;;;;3.05;100.00;94037.91;5013781;28;20174;-62
2021/12/05 03:05:25;;;;;;;1.47;1.33;;;;;;;3.05;100.00;94027.91;5013827;28;20175;-62
2021/12/05 03:07:57;;;;;;;1.70;1.40;;;;;;;3.06;100.00;94040.22;5016873;28;20171;-62
2021/12/05 03:10:22;;;;;;;1.67;1.20;;;;;;;3.07;100.00;94036.34;5016990;28;20164;-62
2021/12/05 03:12:48;;;;;;;2.83;1.70;;;;;;;3.07;100.00;94046.38;5017078;28;20177;-62
2021/12/05 03:15:16;;;;;;;1.33;1.00;;;;;;;3.03;100.00;94049.06;5016900;28;20186;-62
2021/12/05 03:17:42;;;;;;;2.00;1.10;;;;;;;3.04;100.00;94047.94;5017550;28;20178;-63
2021/12/05 03:20:10;;;;;;;1.30;1.10;;;;;;;3.01;100.00;94054.09;5016814;28;20178;-65
2021/12/05 03:22:36;;;;;;;1.27;1.00;;;;;;;3.02;100.00;94055.63;5016907;28;20206;-64
2021/12/05 03:25:02;;;;;;;1.30;1.00;;;;;;;2.93;100.00;94063.34;5016898;28;20254;-63
2021/12/05 03:27:27;;;;;;;1.00;0.80;;;;;;;2.90;100.00;94058.72;5016896;28;20245;-63
2021/12/05 03:29:53;;;;;;;3.93;0.90;;;;;;;2.89;100.00;94062.59;5016747;28;20571;-63
2021/12/05 03:32:18;;;;;;;2.13;1.00;;;;;;;2.83;100.00;94066.81;5016655;28;20175;-63
2021/12/05 03:34:43;;;;;;;1.07;0.80;;;;;;;2.86;100.00;94068.75;5016820;28;20183;-63
2021/12/05 03:37:10;;;;;;;1.93;1.10;;;;;;;2.82;100.00;94078.75;5016427;28;20167;-63
2021/12/05 03:39:36;;;;;;;1.27;0.80;;;;;;;2.79;100.00;94071.44;5016628;28;20358;-62
2021/12/05 03:42:04;;;;;;;2.30;1.00;;;;;;;2.76;100.00;94083.00;5016437;28;20194;-63
2021/12/05 03:44:32;;;;;;;3.57;0.90;;;;;;;2.70;100.00;94081.84;5016482;28;20321;-63
2021/12/05 03:47:00;;;;;;;1.90;1.40;;;;;;;2.68;100.00;94089.53;5016792;28;20187;-62
2021/12/05 03:49:28;;;;;;;3.60;0.90;;;;;;;2.67;100.00;94087.22;5016074;28;20246;-63
2021/12/05 03:52:07;;;;;;;2.70;1.00;;;;;;;2.58;100.00;94084.91;5016964;28;20261;-63
2021/12/05 03:54:33;;;;;;;2.50;0.80;;;;;;;2.55;100.00;94080.28;5016584;28;20201;-62
2021/12/05 03:56:59;;;;;;;1.30;1.00;;;;;;;2.55;100.00;94082.97;5016769;28;20171;-65
2021/12/05 03:59:28;;;;;;;2.50;1.00;;;;;;;2.56;100.00;94078.38;5016117;28;20309;-65
2021/12/05 04:01:53;;;;;;;3.13;1.13;;;;;;;2.52;100.00;94077.59;5070062;23;20229;-60
2021/12/05 04:04:19;;;;;;;1.67;0.80;;;;;;;2.52;100.00;94075.66;5015833;28;20201;-60
2021/12/05 04:06:46;;;;;;;2.07;0.90;;;;;;;2.46;100.00;94071.84;5016238;28;20186;-59
2021/12/05 04:09:13;;;;;;;2.50;1.03;;;;;;;2.47;100.00;94070.66;5015670;28;20182;-61
2021/12/05 04:11:44;;;;;;;2.03;0.93;;;;;;;2.42;100.00;94065.69;5015465;28;20179;-60
2021/12/05 04:14:12;;;;;;;1.60;0.90;;;;;;;2.36;100.00;94066.41;5016473;28;20176;-60
2021/12/05 04:16:40;;;;;;;2.40;1.33;;;;;;;2.33;100.00;94067.97;5016189;28;20182;-58
2021/12/05 04:19:05;;;;;;;1.80;0.90;;;;;;;2.29;100.00;94066.41;5014904;28;20210;-55
2021/12/05 04:21:35;;;;;;;3.27;0.80;;;;;;;2.26;100.00;94059.88;5015590;28;20240;-55
2021/12/05 04:24:01;;;;;;;2.20;1.03;;;;;;;2.21;100.00;94060.25;5015991;28;20171;-55
2021/12/05 04:26:27;;;;;;;1.43;0.90;;;;;;;2.21;100.00;94065.66;5015809;28;20188;-55
2021/12/05 04:28:53;;;;;;;1.73;0.70;;;;;;;2.20;100.00;94055.25;5015345;28;20179;-54
2021/12/05 04:31:21;;;;;;;2.80;1.10;;;;;;;2.19;100.00;94065.25;5014876;28;20171;-56
2021/12/05 04:33:47;;;;;;;2.27;1.00;;;;;;;2.16;100.00;94057.19;5015409;28;20183;-55
2021/12/05 04:36:12;;;;;;;2.37;1.30;;;;;;;2.15;100.00;94050.25;5015500;28;20180;-57
2021/12/05 04:38:38;;;;;;;1.77;1.13;;;;;;;2.16;100.00;94059.88;5015306;28;20312;-61
2021/12/05 04:41:05;;;;;;;2.37;0.90;;;;;;;2.17;100.00;94045.25;5015090;28;20179;-61
2021/12/05 04:43:36;;;;;;;1.60;0.90;;;;;;;2.15;100.00;94053.72;5015329;28;20268;-61
2021/12/05 04:46:04;;;;;;;1.27;0.80;;;;;;;2.15;100.00;94061.78;5015605;28;20182;-60
2021/12/05 04:48:29;;;;;;;2.87;0.97;;;;;;;2.14;100.00;94052.19;5015302;28;20233;-61
2021/12/05 04:50:55;;;;;;;1.00;0.90;;;;;;;2.15;100.00;94045.63;5015783;28;20189;-60
2021/12/05 04:53:22;;;;;;;2.93;1.33;;;;;;;2.18;100.00;94049.47;5014593;28;20178;-60
2021/12/05 04:55:47;;;;;;;2.90;1.27;;;;;;;2.16;100.00;94047.19;5015247;28;20200;-59
2021/12/05 04:58:13;;;;;;;1.87;1.17;;;;;;;2.12;100.00;94043.69;5014511;28;20248;-60
2021/12/05 05:00:44;;;;;;;2.73;1.10;;;;;;;2.13;100.00;94047.16;5014552;28;20231;-59
2021/12/05 05:03:10;;;;;;;2.47;1.23;;;;;;;2.11;100.00;94044.84;5014646;28;20182;-59
2021/12/05 05:05:42;;;;;;;2.63;1.33;;;;;;;2.16;100.00;94047.19;5015133;28;20180;-59
2021/12/05 05:08:08;;;;;;;2.90;1.30;;;;;;;2.13;100.00;94042.56;5014646;28;20262;-59
2021/12/05 05:10:34;;;;;;;2.10;1.17;;;;;;;2.11;100.00;94039.47;5014683;28;20211;-60
2021/12/05 05:12:59;;;;;;;6.00;1.30;;;;;;;2.13;100.00;94047.94;5014696;28;20262;-62
2021/12/05 05:15:28;;;;;;;2.20;1.27;;;;;;;2.10;100.00;94037.94;5014517;28;20213;-63
2021/12/05 05:17:55;;;;;;;4.60;1.47;;;;;;;2.09;100.00;94041.78;5014700;28;20177;-62
2021/12/05 05:20:40;;;;;;;1.87;1.17;;;;;;;2.10;100.00;94045.25;5014254;28;20191;-63
2021/12/05 05:47:52;;;;;;;1.97;1.30;;;;;;;1.93;100.00;94049.44;5015187;28;20256;-59
2021/12/05 05:50:21;;;;;;;3.23;1.30;;;;;;;1.90;100.00;94050.19;5013960;28;20271;-59
2021/12/05 05:52:48;;;;;;;2.20;1.30;;;;;;;1.89;100.00;94047.91;5014376;28;20174;-57
2021/12/05 05:55:14;;;;;;;2.30;1.20;;;;;;;1.88;100.00;94044.44;5013639;28;20185;-59
2021/12/05 05:57:54;;;;;;;3.47;1.30;;;;;;;1.89;100.00;94047.91;5013989;28;20174;-56
2021/12/05 06:00:34;;;;;;;4.03;1.17;;;;;;;1.88;100.00;94041.75;5014632;28;20250;-57
2021/12/05 06:03:21;;;;;;;2.23;1.30;;;;;;;1.89;100.00;94032.50;5014370;28;20181;-55
2021/12/05 06:05:52;;;;;;;2.57;1.47;;;;;;;1.92;100.00;94037.13;5014012;28;20172;-58
2021/12/05 06:08:20;;;;;;;1.77;1.20;;;;;;;1.91;100.00;94045.59;5013644;28;20185;-61
2021/12/05 06:10:46;;;;;;;4.07;1.57;;;;;;;1.90;100.00;94050.19;5013451;28;20177;-61
2021/12/05 06:13:12;;;;;;;1.70;1.23;;;;;;;1.89;100.00;94054.03;5013536;28;20213;-61
2021/12/05 06:15:37;;;;;;;3.53;1.13;;;;;;;1.88;100.00;94057.91;5013245;28;20221;-59
2021/12/05 06:18:03;;;;;;;1.93;1.27;;;;;;;1.88;100.00;94052.50;5013527;28;20205;-59
2021/12/05 06:20:30;;;;;;;2.20;1.23;;;;;;;1.89;100.00;94059.44;5013054;28;20257;-60
2021/12/05 06:22:55;;;;;;;2.03;1.40;;;;;;;1.88;100.00;94063.28;5014198;28;20257;-59
2021/12/05 06:25:24;;;;;;;3.73;1.30;;;;;;;1.90;100.00;94060.22;5013614;28;20222;-59
2021/12/05 06:27:52;;;;;;;2.87;1.93;;;;;;;1.90;100.00;94060.22;5013350;28;20246;-75
2021/12/05 06:30:37;;;;;;;1.93;1.23;;;;;;;1.89;100.00;94062.13;5013294;28;20181;-68
2021/12/05 06:41:09;;;;;;;3.77;1.20;;;;;;;1.86;100.00;94067.50;5013481;28;20308;-60
2021/12/05 06:46:16;;;;;;;2.50;1.30;;;;;;;1.86;100.00;94079.00;5013891;28;20191;-51
2021/12/05 06:48:43;;;;;;;2.93;1.50;;;;;;;1.86;100.00;94084.41;5013580;28;20169;-48
2021/12/05 06:51:12;;;;;;;2.87;1.97;;;;;;;1.85;100.00;94074.78;5012907;28;20186;-48
2021/12/05 06:53:38;;;;;;;4.57;2.50;;;;;;;1.85;100.00;94080.19;5013048;28;20197;-46
2021/12/05 06:56:05;;;;;;;4.53;2.23;;;;;;;1.85;100.00;94079.41;5013237;28;20631;-48
2021/12/05 06:58:32;;;;;;;4.60;2.13;;;;;;;1.84;100.00;94077.88;5012885;28;20273;-58
2021/12/05 07:00:58;;;;;;;6.37;2.77;;;;;;;1.84;100.00;94084.03;5012783;28;20225;-50
2021/12/05 07:03:23;;;;;;;3.87;2.47;;;;;;;1.85;100.00;94085.56;5012776;28;20276;-59
2021/12/05 07:08:16;;;;;;;4.13;2.63;;;;;;;1.85;100.00;94079.41;5014190;28;20184;-61
2021/12/05 07:10:50;;;;;;;6.37;2.77;;;;;;;1.83;100.00;94093.25;5012716;28;20170;-62
2021/12/05 07:21:27;;;;;;;3.77;1.40;;;;;;;1.90;100.00;94071.72;5014319;28;20244;-59
2021/12/05 07:24:10;;;;;;;2.13;1.60;;;;;;;1.94;100.00;94072.53;5013351;28;20172;-62
2021/12/05 07:27:09;;;;;;;3.43;2.10;;;;;;;1.98;100.00;94073.31;5013193;28;20170;-61
2021/12/05 07:40:33;;;;;;;2.83;1.37;;;;;;;2.25;100.00;94061.03;5013895;28;20253;-60
2021/12/05 07:43:07;;;;;;;4.80;2.30;;;;;;;2.33;100.00;94061.81;5012896;28;20180;-52
2021/12/05 07:45:42;;;;;;;4.57;2.77;;;;;;;2.42;100.00;94049.53;5012345;28;20189;-55
2021/12/05 07:48:13;;;;;;;5.93;2.90;;;;;;;2.49;100.00;94046.84;5012506;28;20585;-55
2021/12/05 07:50:48;;;;;;;3.43;1.90;;;;;;;2.61;100.00;94054.50;5012849;28;20179;-55
2021/12/05 07:53:21;;;;;;;4.57;1.60;;;;;;;2.66;100.00;94051.44;5014889;28;20312;-52
2021/12/05 07:55:50;;;;;;;4.17;1.60;;;;;;;2.73;100.00;94050.69;5016416;28;20262;-53
2021/12/05 08:16:56;;;;;;;4.97;2.47;;;;;;;3.11;100.00;94071.41;5016955;28;20221;-59
2021/12/05 08:19:22;;;;;;;2.60;1.87;;;;;;;3.21;100.00;94062.53;5015679;28;20210;-60
2021/12/05 08:21:55;;;;;;;4.27;1.90;;;;;;;3.25;100.00;94057.91;5015656;28;20178;-60
2021/12/05 08:24:20;;;;;;;6.10;2.83;;;;;;;3.33;100.00;94065.59;5016370;28;20533;-60
2021/12/05 08:26:48;;;;;;;3.77;2.13;;;;;;;3.35;100.00;94063.25;5016276;28;20238;-59
2021/12/05 08:29:18;;;;;;;5.70;3.30;;;;;;;3.32;100.00;94066.72;5016288;28;20250;-59
2021/12/05 08:32:03;;;;;;;6.97;4.50;;;;;;;3.30;100.00;94071.75;5015195;28;20179;-59
2021/12/05 08:34:45;;;;;;;7.23;4.00;;;;;;;3.27;100.00;94067.13;5017166;28;20198;-59
2021/12/05 08:37:47;;;;;;;5.20;2.23;;;;;;;3.27;100.00;94071.75;5015895;28;20178;-62
2021/12/05 08:43:10;;;;;;;3.67;1.30;;;;;;;3.26;100.00;94081.78;5016439;28;20225;-59
2021/12/05 09:08:42;;;;;;;3.37;1.73;;;;;;;3.46;100.00;94069.38;4986359;28;20209;-64
2021/12/05 09:40:27;;;;;;;3.53;2.20;;;;;;;4.03;100.00;94085.34;5015426;28;20198;-64
2021/12/05 10:09:57;;;;;;;27.13;17.33;;;;;;;4.25;100.00;94082.16;5014901;28;20183;-55
2021/12/05 10:12:51;;;;;;;3.27;2.37;;;;;;;4.27;100.00;94082.53;5013974;28;20250;-56
2021/12/05 10:35:19;;;;;;;6.13;2.97;;;;;;;4.54;100.00;94074.63;5014962;28;20206;-65
2021/12/05 10:37:50;;;;;;;13.33;6.30;;;;;;;4.61;100.00;94082.69;5014070;28;20190;-63
2021/12/05 10:40:22;;;;;;;3.80;2.37;;;;;;;4.68;100.00;94082.63;5013639;28;20217;-66
2021/12/05 10:42:51;;;;;;;3.17;1.27;;;;;;;4.78;100.00;94076.38;5013769;28;20579;-56
2021/12/05 10:45:19;;;;;;;3.13;1.60;;;;;;;4.86;100.00;94073.22;5013086;28;20176;-55
2021/12/05 10:47:51;;;;;;;4.20;1.60;;;;;;;4.83;100.00;94084.06;5013215;28;20175;-56
2021/12/05 10:50:37;;;;;;;3.30;1.40;;;;;;;4.91;100.00;94080.13;5012746;28;20174;-54
2021/12/05 10:53:21;;;;;;;4.60;1.93;;;;;;;5.01;100.00;94080.06;5012856;28;20178;-54
2021/12/05 10:55:59;;;;;;;2.10;1.30;;;;;;;5.10;100.00;94079.59;5013159;28;20237;-54
2021/12/05 10:58:32;;;;;;;2.57;1.53;;;;;;;5.08;100.00;94076.50;5013301;28;20207;-58
2021/12/05 11:01:13;;;;;;;4.83;2.33;;;;;;;5.15;100.00;94085.34;5013364;28;20235;-63
2021/12/05 11:03:40;;;;;;;3.90;1.87;;;;;;;5.14;100.00;94077.63;5013610;28;20163;-62
2021/12/05 11:06:22;;;;;;;2.43;1.67;;;;;;;5.25;100.00;94078.28;5013973;28;20167;-64
2021/12/05 11:08:56;;;;;;;3.10;1.70;;;;;;;5.30;100.00;94080.53;5013909;28;20168;-61
2021/12/05 11:11:23;;;;;;;5.03;1.87;;;;;;;5.34;100.00;94086.69;5013301;28;20167;-62
2021/12/05 11:13:50;;;;;;;7.73;3.37;;;;;;;5.36;100.00;94078.94;5013458;28;20184;-66
2021/12/05 11:16:46;;;;;;;4.80;2.47;;;;;;;5.34;100.00;94081.28;5012991;28;20175;-63
2021/12/05 11:19:13;;;;;;;1.87;1.63;;;;;;;5.32;100.00;94080.94;4996936;28;20217;-57
2021/12/05 11:21:47;;;;;;;4.43;1.77;;;;;;;5.27;100.00;94076.72;5012674;28;20175;-55
2021/12/05 11:24:24;;;;;;;2.50;1.80;;;;;;;5.31;100.00;94076.66;5013231;28;20482;-57
2021/12/05 11:27:07;;;;;;;1.97;1.10;;;;;;;5.36;100.00;94084.38;5013436;28;20210;-52
2021/12/05 11:29:46;;;;;;;4.57;1.47;;;;;;;5.35;100.00;94082.84;5017064;28;20175;-58
2021/12/05 11:32:33;;;;;;;3.07;1.93;;;;;;;5.33;100.00;94083.22;5016688;28;20177;-57
2021/12/05 11:35:14;;;;;;;4.13;1.30;;;;;;;5.29;100.00;94085.22;5016959;28;20198;-57
2021/12/05 11:37:54;;;;;;;1.87;1.10;;;;;;;5.29;100.00;94079.00;5017023;28;20264;-58
2021/12/05 11:40:20;;;;;;;2.67;1.30;;;;;;;5.28;100.00;94088.31;5016142;28;20331;-62
2021/12/05 11:42:52;;;;;;;3.73;1.70;;;;;;;5.28;100.00;94082.91;5015897;28;20180;-65
2021/12/05 11:45:17;;;;;;;2.90;1.30;;;;;;;5.23;100.00;94075.97;5016998;28;20179;-62
2021/12/05 11:47:42;;;;;;;5.83;1.70;;;;;;;5.21;100.00;94083.72;5016481;28;20264;-61
2021/12/05 11:50:08;;;;;;;2.20;1.30;;;;;;;5.24;100.00;94087.59;5016618;28;20190;-62
2021/12/05 11:52:39;;;;;;;4.37;1.90;;;;;;;5.21;100.00;94082.97;5016859;28;20190;-62
2021/12/05 11:55:06;;;;;;;6.20;2.60;;;;;;;5.24;100.00;94084.88;5016126;28;20262;-56
2021/12/05 11:57:31;;;;;;;3.17;1.30;;;;;;;5.21;100.00;94077.56;5016380;28;20270;-60
2021/12/05 12:00:08;;;;;;;3.77;1.63;;;;;;;5.22;100.00;94084.50;5016284;28;20284;-57
2021/12/05 12:02:38;;;;;;;21.17;13.63;;;;;;;5.21;100.00;94082.97;5015534;28;20312;-52
2021/12/05 12:05:06;;;;;;;6.63;3.80;;;;;;;5.20;100.00;94078.69;5016361;28;20187;-55
2021/12/05 12:07:34;;;;;;;3.60;1.40;;;;;;;5.17;100.00;94079.53;5015921;28;20215;-54
2021/12/05 12:10:18;;;;;;;2.10;1.40;;;;;;;5.08;100.00;94080.00;5015747;28;20183;-52
2021/12/05 12:12:49;;;;;;;1.97;1.30;;;;;;;5.03;100.00;94071.53;5016220;28;20183;-48
2021/12/05 12:15:16;;;;;;;2.70;1.70;;;;;;;4.93;100.00;94077.81;5016481;28;20186;-55
2021/12/05 12:17:43;;;;;;;3.87;1.77;;;;;;;4.94;100.00;94073.91;5016325;28;20218;-59
2021/12/05 12:20:11;;;;;;;3.87;1.33;;;;;;;4.95;100.00;94072.78;5015577;28;20219;-58
2021/12/05 12:22:38;;;;;;;1.90;1.50;;;;;;;4.98;100.00;94074.66;5015293;28;20187;-58
2021/12/05 12:25:09;;;;;;;6.03;1.70;;;;;;;5.02;100.00;94076.16;5015298;28;20179;-58
2021/12/05 12:27:35;;;;;;;7.37;4.43;;;;;;;5.04;100.00;94076.56;5016199;28;20268;-58
2021/12/05 12:30:04;;;;;;;4.17;2.70;;;;;;;5.09;100.00;94067.22;5015669;28;20249;-60
2021/12/05 12:32:34;;;;;;;3.93;1.70;;;;;;;5.11;100.00;94067.59;5015400;28;20234;-54
2021/12/05 12:35:28;;;;;;;2.40;1.37;;;;;;;5.11;100.00;94067.59;5015735;28;20171;-64
2021/12/05 12:38:16;;;;;;;2.63;1.60;;;;;;;5.12;100.00;94074.53;5012252;28;20187;-64
2021/12/05 12:40:54;;;;;;;5.80;3.97;;;;;;;5.15;100.00;94068.31;5015683;28;20274;-62
2021/12/05 12:43:43;;;;;;;10.60;5.63;;;;;;;5.15;100.00;94071.81;5015776;28;20605;-62
2021/12/05 12:46:22;;;;;;;3.87;1.73;;;;;;;5.11;100.00;94073.00;5015563;28;20183;-62
2021/12/05 12:48:51;;;;;;;19.13;11.07;;;;;;;5.11;100.00;94073.00;5014875;28;20278;-62
2021/12/05 12:51:36;;;;;;;32.60;19.50;;;;;;;5.18;100.00;94070.22;5015171;28;20190;-59
2021/12/05 12:54:09;;;;;;;3.70;1.60;;;;;;;5.22;100.00;94065.56;5015359;28;20190;-59
2021/12/05 12:56:35;;;;;;;3.97;1.60;;;;;;;5.25;100.00;94072.88;5015826;28;20195;-59
2021/12/05 12:59:14;;;;;;;4.43;1.30;;;;;;;5.21;100.00;94072.91;5015353;28;20208;-59
2021/12/05 13:10:31;;;;;;;4.83;1.47;;;;;;;5.21;100.00;94074.84;4994521;28;20187;-47
2021/12/05 13:12:54;;;;;;;3.87;1.40;;;;;;;5.22;100.00;94068.25;4991391;28;20191;-60
2021/12/05 13:15:20;;;;;;;2.07;1.50;;;;;;;5.18;100.00;94072.94;5008895;28;20198;-61
2021/12/05 13:17:53;;;;;;;2.53;1.80;;;;;;;5.18;100.00;94067.53;5014476;28;20191;-60
2021/12/05 13:20:23;;;;;;;2.97;1.50;;;;;;;5.14;100.00;94066.78;5014843;28;20211;-65
2021/12/05 13:22:59;;;;;;;4.50;1.60;;;;;;;5.10;100.00;94071.47;5015243;28;20258;-65
2021/12/05 13:25:25;;;;;;;3.63;1.50;;;;;;;5.03;100.00;94068.84;5014742;28;20246;-65
2021/12/05 13:27:50;;;;;;;5.23;1.60;;;;;;;5.04;100.00;94078.47;5014485;28;20181;-52
2021/12/05 13:30:34;;;;;;;5.80;1.70;;;;;;;5.02;100.00;94069.97;5014233;28;20274;-60
2021/12/05 13:33:21;;;;;;;3.30;1.60;;;;;;;4.98;100.00;94070.03;5014851;28;20243;-59
2021/12/05 13:35:47;;;;;;;5.20;2.80;;;;;;;4.97;100.00;94076.59;5015219;28;20266;-55
2021/12/05 13:38:34;;;;;;;5.87;2.50;;;;;;;4.95;100.00;94075.47;5014324;28;20216;-58
2021/12/05 13:41:09;;;;;;;4.37;1.60;;;;;;;4.87;100.00;94084.78;5014495;28;20179;-57
2021/12/05 13:43:35;;;;;;;3.50;1.50;;;;;;;4.71;100.00;94081.84;5014370;28;20263;-58
2021/12/05 13:46:03;;;;;;;3.00;1.40;;;;;;;4.66;100.00;94080.31;5014695;28;20229;-63
2021/12/05 13:48:29;;;;;;;3.00;1.47;;;;;;;4.62;100.00;94078.84;5014223;28;20183;-58
2021/12/05 13:51:05;;;;;;;4.07;1.90;;;;;;;4.64;100.00;94084.59;5015085;28;20173;-58
2021/12/05 13:53:46;;;;;;;6.57;2.20;;;;;;;4.63;100.00;94085.75;5014439;28;20195;-59
2021/12/05 13:56:15;;;;;;;3.87;2.20;;;;;;;4.58;100.00;94086.94;5014600;28;20190;-58
2021/12/05 13:58:45;;;;;;;3.97;2.03;;;;;;;4.52;100.00;94085.06;5013818;28;20196;-61
2021/12/05 14:01:22;;;;;;;5.73;1.80;;;;;;;4.51;100.00;94094.34;5014193;28;20229;-61
2021/12/05 14:04:23;;;;;;;5.50;2.20;;;;;;;4.53;100.00;94087.38;5013892;28;20190;-61
2021/12/05 14:06:58;;;;;;;3.30;1.43;;;;;;;4.54;100.00;94088.13;5013486;28;20171;-63
2021/12/05 14:09:29;;;;;;;2.70;1.40;;;;;;;4.50;100.00;94087.38;5014271;28;20302;-65
2021/12/05 14:11:57;;;;;;;3.17;1.70;;;;;;;4.40;100.00;94085.53;5014567;28;20675;-65
2021/12/05 14:14:28;;;;;;;3.23;1.60;;;;;;;4.34;100.00;94095.22;5013293;28;20191;-67
2021/12/05 14:16:56;;;;;;;5.93;1.70;;;;;;;4.34;100.00;94095.22;5013903;28;20298;-63
2021/12/05 14:19:26;;;;;;;3.33;1.40;;;;;;;4.31;100.00;94096.78;5013756;28;20214;-63
2021/12/05 14:21:53;;;;;;;2.03;1.30;;;;;;;4.12;100.00;94091.09;5013742;28;20183;-61
2021/12/05 14:24:21;;;;;;;2.83;1.80;;;;;;;4.06;100.00;94089.97;5013161;28;20614;-56
2021/12/05 14:26:51;;;;;;;4.33;1.83;;;;;;;4.01;100.00;94095.78;5013293;28;20186;-59
2021/12/05 14:29:20;;;;;;;4.10;1.50;;;;;;;3.75;100.00;94091.63;5013669;28;20194;-59
2021/12/05 14:31:54;;;;;;;6.67;1.73;;;;;;;3.67;100.00;94086.69;5013683;28;20210;-59
2021/12/05 14:34:20;;;;;;;4.07;1.80;;;;;;;3.63;100.00;94077.81;5013501;28;20179;-59
2021/12/05 14:36:49;;;;;;;1.97;1.50;;;;;;;3.56;100.00;94094.03;5013226;28;20183;-59
2021/12/05 14:39:23;;;;;;;2.73;1.60;;;;;;;3.53;100.00;94084.03;5013074;28;20211;-59
2021/12/05 14:41:51;;;;;;;5.30;3.33;;;;;;;3.45;100.00;94094.06;5012911;28;20179;-65
2021/12/05 14:44:18;;;;;;;2.13;1.67;;;;;;;3.42;100.00;94092.91;5013216;28;20184;-63
2021/12/05 14:46:56;;;;;;;3.87;2.17;;;;;;;3.34;100.00;94096.78;5013129;28;20357;-63
2021/12/05 14:49:24;;;;;;;3.73;2.20;;;;;;;3.21;100.00;94089.50;5013445;28;20175;-63
2021/12/05 14:51:51;;;;;;;3.83;2.20;;;;;;;3.07;100.00;94094.91;5012383;28;20270;-63
2021/12/05 14:54:26;;;;;;;5.17;2.40;;;;;;;3.02;100.00;94093.38;5013700;28;20179;-68
2021/12/05 14:56:52;;;;;;;3.27;2.27;;;;;;;2.98;100.00;94103.38;5013361;28;20171;-72
2021/12/05 14:59:19;;;;;;;3.63;2.13;;;;;;;2.94;100.00;94108.00;5012909;28;20203;-56
2021/12/05 15:01:49;;;;;;;3.30;1.70;;;;;;;2.84;100.00;94106.09;5012494;28;20274;-55
2021/12/05 15:04:19;;;;;;;5.33;2.83;;;;;;;2.87;100.00;94101.84;5014107;28;20156;-55
2021/12/05 15:06:45;;;;;;;5.27;2.20;;;;;;;2.88;100.00;94098.78;5013137;28;20197;-52
2021/12/05 15:09:24;;;;;;;5.63;2.10;;;;;;;2.77;100.00;94108.03;5013302;28;20172;-54
2021/12/05 15:11:57;;;;;;;3.40;1.93;;;;;;;2.74;100.00;94104.16;5013363;28;20217;-54
2021/12/05 15:14:24;;;;;;;7.17;3.30;;;;;;;2.77;100.00;94108.03;5013190;28;20172;-53
2021/12/05 15:17:03;;;;;;;4.23;2.40;;;;;;;2.71;100.00;94113.03;5013126;28;20182;-55
2021/12/05 15:19:29;;;;;;;3.57;2.13;;;;;;;2.69;100.00;94111.84;5013279;28;20194;-64
2021/12/05 15:21:55;;;;;;;3.63;2.37;;;;;;;2.74;100.00;94109.53;5012535;28;20265;-55
2021/12/05 15:24:26;;;;;;;4.60;2.40;;;;;;;2.66;100.00;94118.78;5012632;28;20171;-55
2021/12/05 15:26:52;;;;;;;4.50;2.13;;;;;;;2.60;100.00;94125.72;5012553;28;20171;-58
2021/12/05 15:29:17;;;;;;;5.03;2.20;;;;;;;2.64;100.00;94126.50;5012434;28;20182;-58
2021/12/05 15:31:44;;;;;;;3.20;2.53;;;;;;;2.66;100.00;94129.56;5012859;28;20244;-58
2021/12/05 15:34:26;;;;;;;5.00;3.20;;;;;;;2.59;100.00;94134.94;5012458;28;20202;-58
2021/12/05 15:36:52;;;;;;;4.03;3.03;;;;;;;2.57;100.00;94134.56;5012599;28;20201;-67
2021/12/05 15:39:23;;;;;;;4.03;2.90;;;;;;;2.56;100.00;94132.25;5012204;28;20205;-65
2021/12/05 15:41:50;;;;;;;6.30;3.30;;;;;;;2.40;100.00;94132.59;5012654;28;20171;-64
2021/12/05 15:44:47;;;;;;;7.23;4.43;;;;;;;2.28;100.00;94141.06;5013002;28;20221;-65
2021/12/05 15:47:17;;;;;;;8.03;4.47;;;;;;;2.21;100.00;94151.81;4996940;28;20190;-64
2021/12/05 15:49:51;;;;;;;7.10;4.23;;;;;;;2.00;100.00;94146.34;5012239;28;20192;-62
2021/12/05 15:52:21;;;;;;;6.33;4.00;;;;;;;1.92;100.00;94141.31;5012774;28;20190;-60
2021/12/05 15:54:46;;;;;;;4.67;2.63;;;;;;;1.81;100.00;94152.03;5012585;28;20178;-51
2021/12/05 15:57:28;;;;;;;4.03;2.47;;;;;;;1.70;100.00;94148.53;5012411;28;20202;-47
2021/12/05 15:59:54;;;;;;;3.67;2.47;;;;;;;1.69;100.00;94140.84;5012420;28;20222;-50
2021/12/05 16:02:20;;;;;;;3.97;2.30;;;;;;;1.67;100.00;94151.97;5012574;28;20281;-51
2021/12/05 16:04:47;;;;;;;4.03;2.50;;;;;;;1.60;100.00;94160.00;5012971;28;20229;-45
2021/12/05 16:07:13;;;;;;;3.53;2.30;;;;;;;1.51;100.00;94156.13;5012588;28;20176;-49
2021/12/05 16:09:41;;;;;;;6.17;2.40;;;;;;;1.47;100.00;94155.31;5011929;28;20637;-52
2021/12/05 16:12:16;;;;;;;4.13;2.70;;;;;;;1.47;100.00;94160.69;5013058;28;20188;-60
2021/12/05 16:14:44;;;;;;;4.83;3.03;;;;;;;1.45;100.00;94160.31;5014223;28;20179;-66
2021/12/05 16:17:18;;;;;;;7.23;3.50;;;;;;;1.42;100.00;94158.38;5016197;28;20179;-60
2021/12/05 16:20:09;;;;;;;4.53;2.73;;;;;;;1.39;100.00;94167.97;5015810;28;20216;-60
2021/12/05 16:23:12;;;;;;;3.60;2.30;;;;;;;1.34;100.00;94162.94;5016188;28;20255;-59
2021/12/05 16:25:56;;;;;;;7.17;3.00;;;;;;;1.26;100.00;94164.03;5015892;28;20189;-60
2021/12/05 16:28:28;;;;;;;4.27;2.50;;;;;;;1.23;100.00;94178.22;5016173;28;20178;-59
2021/12/05 16:31:02;;;;;;;6.17;2.50;;;;;;;1.22;100.00;94160.56;5015315;28;20185;-59
2021/12/05 16:33:29;;;;;;;5.27;2.87;;;;;;;1.19;100.00;94172.06;5015382;28;20181;-60
2021/12/05 16:35:55;;;;;;;9.07;2.97;;;;;;;1.16;100.00;94172.03;5015336;28;20239;-57
2021/12/05 16:38:30;;;;;;;6.20;2.80;;;;;;;1.11;100.00;94172.38;5015789;28;20176;-59
2021/12/05 16:41:04;;;;;;;6.40;3.03;;;;;;;1.10;100.00;94181.59;5015093;28;20172;-60
2021/12/05 16:43:32;;;;;;;6.80;3.80;;;;;;;1.09;100.00;94180.81;5015191;28;20178;-60
2021/12/05 16:46:12;;;;;;;6.43;3.27;;;;;;;1.09;100.00;94188.88;5015110;28;20248;-59
2021/12/05 16:48:39;;;;;;;6.87;3.50;;;;;;;1.11;100.00;94186.59;5015245;28;20176;-65
2021/12/05 16:51:34;;;;;;;4.93;3.30;;;;;;;1.13;100.00;94189.66;5015496;28;20177;-58
2021/12/05 16:54:20;;;;;;;6.40;3.77;;;;;;;1.19;100.00;94187.41;5014694;28;20174;-58
2021/12/05 16:56:50;;;;;;;7.47;3.60;;;;;;;1.20;100.00;94188.97;5015482;28;20271;-59
2021/12/05 16:59:20;;;;;;;5.90;3.90;;;;;;;1.18;100.00;94191.25;5014735;28;20217;-60
2021/12/05 17:02:05;;;;;;;6.83;4.80;;;;;;;1.23;100.00;94193.56;5014552;28;20230;-60
2021/12/05 17:04:56;;;;;;;5.70;3.97;;;;;;;1.26;100.00;94182.84;5015195;28;20173;-61